HTZA/ZNZ METAR and TAF weather

Enter ICAO airport designator
Station Type Date Time Source
HTZA METAR 2019/12/13 00:00 UTC NOAA

HTZA 130000Z 00000KT 9999 FEW014 SCT080 25/24 Q1010 NOSIG


Station Type Date Time Source
HTZA Decoded METAR 2019/12/13 00:00 UTC NOAA

Zanzibar / Kisauni, Tanzania (HTZA) 06-13S 039-13E 15M
Dec 12, 2019 - 07:00 PM EST / 2019.12.13 0000 UTC
Wind: Calm:0
Visibility: greater than 7 mile(s):0
Sky conditions: partly cloudy
Temperature: 77 F (25 C)
Dew Point: 75 F (24 C)
Relative Humidity: 94%
Pressure (altimeter): 29.83 in. Hg (1010 hPa)
ob: HTZA 130000Z 00000KT 9999 FEW014 SCT080 25/24 Q1010 NOSIG
cycle: 0

Station Type Date Time Source
HTZA TAF 2019/12/13 00:54 UTC NOAA

HTZA 122300Z 1300/1324 00000KT 9999 FEW014
BECMG 1204/1206 36010KT BKN018
BECMG 1210/1212 06010KT SCT024

Example: see airport list